sensor_id;sensor_type;location;lat;lon;timestamp;temperature;humidity
17992;DHT22;9121;50.926;5.340;2023-05-25T00:00:18;12.50;99.90
17992;DHT22;9121;50.926;5.340;2023-05-25T00:02:46;12.50;99.90
17992;DHT22;9121;50.926;5.340;2023-05-25T00:05:13;12.40;99.90
17992;DHT22;9121;50.926;5.340;2023-05-25T00:07:44;12.40;99.90
17992;DHT22;9121;50.926;5.340;2023-05-25T00:10:11;12.50;99.90
17992;DHT22;9121;50.926;5.340;2023-05-25T00:12:38;12.50;99.90
17992;DHT22;9121;50.926;5.340;2023-05-25T00:15:06;12.60;99.90
17992;DHT22;9121;50.926;5.340;2023-05-25T00:17:33;12.50;99.90
17992;DHT22;9121;50.926;5.340;2023-05-25T00:20:01;12.50;99.90
17992;DHT22;9121;50.926;5.340;2023-05-25T00:22:34;12.50;99.90
17992;DHT22;9121;50.926;5.340;2023-05-25T00:25:02;12.50;99.90
17992;DHT22;9121;50.926;5.340;2023-05-25T00:27:29;12.50;99.90
17992;DHT22;9121;50.926;5.340;2023-05-25T00:29:56;12.60;99.90
17992;DHT22;9121;50.926;5.340;2023-05-25T00:32:23;12.60;99.90
17992;DHT22;9121;50.926;5.340;2023-05-25T00:34:50;12.50;99.90
17992;DHT22;9121;50.926;5.340;2023-05-25T00:37:17;12.50;99.90
17992;DHT22;9121;50.926;5.340;2023-05-25T00:39:44;12.50;99.90
17992;DHT22;9121;50.926;5.340;2023-05-25T00:42:12;12.50;99.90
17992;DHT22;9121;50.926;5.340;2023-05-25T00:44:40;12.50;99.90
17992;DHT22;9121;50.926;5.340;2023-05-25T00:47:07;12.40;99.90
17992;DHT22;9121;50.926;5.340;2023-05-25T00:49:35;12.40;99.90
17992;DHT22;9121;50.926;5.340;2023-05-25T00:52:02;12.40;99.90
17992;DHT22;9121;50.926;5.340;2023-05-25T00:54:30;12.30;99.90
17992;DHT22;9121;50.926;5.340;2023-05-25T00:57:00;12.20;99.90
17992;DHT22;9121;50.926;5.340;2023-05-25T00:59:32;12.20;99.90
17992;DHT22;9121;50.926;5.340;2023-05-25T01:02:03;12.20;99.90
17992;DHT22;9121;50.926;5.340;2023-05-25T01:04:33;12.20;99.90
17992;DHT22;9121;50.926;5.340;2023-05-25T01:07:02;12.20;99.90
17992;DHT22;9121;50.926;5.340;2023-05-25T01:09:31;12.10;99.90
17992;DHT22;9121;50.926;5.340;2023-05-25T01:12:01;12.10;99.90
17992;DHT22;9121;50.926;5.340;2023-05-25T01:14:30;12.10;99.90
17992;DHT22;9121;50.926;5.340;2023-05-25T01:16:58;12.10;99.90
17992;DHT22;9121;50.926;5.340;2023-05-25T01:19:27;12.10;99.90
17992;DHT22;9121;50.926;5.340;2023-05-25T01:22:03;12.10;99.90
17992;DHT22;9121;50.926;5.340;2023-05-25T01:24:35;12.00;99.90
17992;DHT22;9121;50.926;5.340;2023-05-25T01:27:11;11.90;99.90
17992;DHT22;9121;50.926;5.340;2023-05-25T01:29:42;11.90;99.90
17992;DHT22;9121;50.926;5.340;2023-05-25T01:32:10;11.90;99.90
17992;DHT22;9121;50.926;5.340;2023-05-25T01:34:39;11.80;99.90
17992;DHT22;9121;50.926;5.340;2023-05-25T01:37:08;11.80;99.90
17992;DHT22;9121;50.926;5.340;2023-05-25T01:39:38;11.70;99.90
17992;DHT22;9121;50.926;5.340;2023-05-25T01:42:05;11.70;99.90
17992;DHT22;9121;50.926;5.340;2023-05-25T01:44:32;11.70;99.90
17992;DHT22;9121;50.926;5.340;2023-05-25T01:47:02;11.60;99.90
17992;DHT22;9121;50.926;5.340;2023-05-25T01:49:36;11.60;99.90
17992;DHT22;9121;50.926;5.340;2023-05-25T01:52:14;11.60;99.90
17992;DHT22;9121;50.926;5.340;2023-05-25T01:54:46;11.60;99.90
17992;DHT22;9121;50.926;5.340;2023-05-25T01:57:17;11.50;99.90
17992;DHT22;9121;50.926;5.340;2023-05-25T01:59:46;11.50;99.90
17992;DHT22;9121;50.926;5.340;2023-05-25T02:02:14;11.50;99.90
17992;DHT22;9121;50.926;5.340;2023-05-25T02:04:42;11.50;99.90
17992;DHT22;9121;50.926;5.340;2023-05-25T02:07:11;11.40;99.90
17992;DHT22;9121;50.926;5.340;2023-05-25T02:09:38;11.40;99.90
17992;DHT22;9121;50.926;5.340;2023-05-25T02:12:05;11.30;99.90
17992;DHT22;9121;50.926;5.340;2023-05-25T02:14:32;11.40;99.90
17992;DHT22;9121;50.926;5.340;2023-05-25T02:17:00;11.40;99.90
17992;DHT22;9121;50.926;5.340;2023-05-25T02:19:28;11.30;99.90
17992;DHT22;9121;50.926;5.340;2023-05-25T02:21:55;11.40;99.90
17992;DHT22;9121;50.926;5.340;2023-05-25T02:24:23;11.50;99.90
17992;DHT22;9121;50.926;5.340;2023-05-25T02:26:51;11.50;99.90
17992;DHT22;9121;50.926;5.340;2023-05-25T02:29:18;11.50;99.90
17992;DHT22;9121;50.926;5.340;2023-05-25T02:31:45;11.50;99.90
17992;DHT22;9121;50.926;5.340;2023-05-25T02:34:12;11.50;99.90
17992;DHT22;9121;50.926;5.340;2023-05-25T02:36:40;11.50;99.90
17992;DHT22;9121;50.926;5.340;2023-05-25T02:39:08;11.50;99.90
17992;DHT22;9121;50.926;5.340;2023-05-25T02:41:37;11.50;99.90
17992;DHT22;9121;50.926;5.340;2023-05-25T02:44:04;11.40;99.90
17992;DHT22;9121;50.926;5.340;2023-05-25T02:46:31;11.30;99.90
17992;DHT22;9121;50.926;5.340;2023-05-25T02:48:59;11.30;99.90
17992;DHT22;9121;50.926;5.340;2023-05-25T02:51:26;11.30;99.90
17992;DHT22;9121;50.926;5.340;2023-05-25T02:53:53;11.30;99.90
17992;DHT22;9121;50.926;5.340;2023-05-25T02:56:20;11.30;99.90
17992;DHT22;9121;50.926;5.340;2023-05-25T02:58:48;11.20;99.90
17992;DHT22;9121;50.926;5.340;2023-05-25T03:01:15;11.20;99.90
17992;DHT22;9121;50.926;5.340;2023-05-25T03:03:44;11.20;99.90
17992;DHT22;9121;50.926;5.340;2023-05-25T03:06:11;11.10;99.90
17992;DHT22;9121;50.926;5.340;2023-05-25T03:08:39;11.10;99.90
17992;DHT22;9121;50.926;5.340;2023-05-25T03:11:06;11.20;99.90
17992;DHT22;9121;50.926;5.340;2023-05-25T03:13:33;11.10;99.90
17992;DHT22;9121;50.926;5.340;2023-05-25T03:16:01;11.00;99.90
17992;DHT22;9121;50.926;5.340;2023-05-25T03:18:28;10.90;99.90
17992;DHT22;9121;50.926;5.340;2023-05-25T03:20:55;10.80;99.90
17992;DHT22;9121;50.926;5.340;2023-05-25T03:23:22;10.70;99.90
17992;DHT22;9121;50.926;5.340;2023-05-25T03:25:49;10.70;99.90
17992;DHT22;9121;50.926;5.340;2023-05-25T03:28:16;10.70;99.90
17992;DHT22;9121;50.926;5.340;2023-05-25T03:30:43;10.70;99.90
17992;DHT22;9121;50.926;5.340;2023-05-25T03:33:11;10.80;99.90
17992;DHT22;9121;50.926;5.340;2023-05-25T03:35:39;10.80;99.90
17992;DHT22;9121;50.926;5.340;2023-05-25T03:38:06;10.70;99.90
17992;DHT22;9121;50.926;5.340;2023-05-25T03:40:33;10.80;99.90
17992;DHT22;9121;50.926;5.340;2023-05-25T03:43:00;10.80;99.90
17992;DHT22;9121;50.926;5.340;2023-05-25T03:45:27;10.70;99.90
17992;DHT22;9121;50.926;5.340;2023-05-25T03:47:54;10.80;99.90
17992;DHT22;9121;50.926;5.340;2023-05-25T03:50:22;10.80;99.90
17992;DHT22;9121;50.926;5.340;2023-05-25T03:52:49;10.90;99.90
17992;DHT22;9121;50.926;5.340;2023-05-25T03:55:16;10.90;99.90
17992;DHT22;9121;50.926;5.340;2023-05-25T03:57:44;10.70;99.90
17992;DHT22;9121;50.926;5.340;2023-05-25T04:00:12;10.70;99.90
17992;DHT22;9121;50.926;5.340;2023-05-25T04:02:39;10.60;99.90
17992;DHT22;9121;50.926;5.340;2023-05-25T04:05:07;10.60;99.90
17992;DHT22;9121;50.926;5.340;2023-05-25T04:07:35;10.60;99.90
17992;DHT22;9121;50.926;5.340;2023-05-25T04:10:02;10.60;99.90
17992;DHT22;9121;50.926;5.340;2023-05-25T04:12:29;10.60;99.90
17992;DHT22;9121;50.926;5.340;2023-05-25T04:14:56;10.60;99.90
17992;DHT22;9121;50.926;5.340;2023-05-25T04:17:23;10.60;99.90
17992;DHT22;9121;50.926;5.340;2023-05-25T04:19:50;10.60;99.90
17992;DHT22;9121;50.926;5.340;2023-05-25T04:22:17;10.60;99.90
17992;DHT22;9121;50.926;5.340;2023-05-25T04:24:47;10.60;99.90
17992;DHT22;9121;50.926;5.340;2023-05-25T04:27:14;10.60;99.90
17992;DHT22;9121;50.926;5.340;2023-05-25T04:29:42;10.60;99.90
17992;DHT22;9121;50.926;5.340;2023-05-25T04:32:09;10.60;99.90
17992;DHT22;9121;50.926;5.340;2023-05-25T04:34:39;10.60;99.90
17992;DHT22;9121;50.926;5.340;2023-05-25T04:37:06;10.50;99.90
17992;DHT22;9121;50.926;5.340;2023-05-25T04:39:33;10.50;99.90
17992;DHT22;9121;50.926;5.340;2023-05-25T04:42:02;10.40;99.90
17992;DHT22;9121;50.926;5.340;2023-05-25T04:44:30;10.50;99.90
17992;DHT22;9121;50.926;5.340;2023-05-25T04:46:57;10.50;99.90
17992;DHT22;9121;50.926;5.340;2023-05-25T04:49:25;10.50;99.90
17992;DHT22;9121;50.926;5.340;2023-05-25T04:51:53;10.60;99.90
17992;DHT22;9121;50.926;5.340;2023-05-25T04:54:20;10.70;99.90
17992;DHT22;9121;50.926;5.340;2023-05-25T04:56:47;10.80;99.90
17992;DHT22;9121;50.926;5.340;2023-05-25T04:59:16;10.90;99.90
17992;DHT22;9121;50.926;5.340;2023-05-25T05:01:43;11.00;99.90
17992;DHT22;9121;50.926;5.340;2023-05-25T05:04:10;11.10;99.90
17992;DHT22;9121;50.926;5.340;2023-05-25T05:06:37;11.00;99.90
17992;DHT22;9121;50.926;5.340;2023-05-25T05:09:04;11.10;99.90
17992;DHT22;9121;50.926;5.340;2023-05-25T05:11:31;11.00;99.90
17992;DHT22;9121;50.926;5.340;2023-05-25T05:13:58;11.00;99.90
17992;DHT22;9121;50.926;5.340;2023-05-25T05:16:27;11.00;99.90
17992;DHT22;9121;50.926;5.340;2023-05-25T05:18:58;11.10;99.90
17992;DHT22;9121;50.926;5.340;2023-05-25T05:21:25;11.10;99.90
17992;DHT22;9121;50.926;5.340;2023-05-25T05:23:52;11.10;99.90
17992;DHT22;9121;50.926;5.340;2023-05-25T05:26:19;11.20;99.90
17992;DHT22;9121;50.926;5.340;2023-05-25T05:28:45;11.30;99.90
17992;DHT22;9121;50.926;5.340;2023-05-25T05:31:12;11.30;99.90
17992;DHT22;9121;50.926;5.340;2023-05-25T05:33:43;11.30;99.90
17992;DHT22;9121;50.926;5.340;2023-05-25T05:36:10;11.30;99.90
17992;DHT22;9121;50.926;5.340;2023-05-25T05:38:37;11.40;99.90
17992;DHT22;9121;50.926;5.340;2023-05-25T05:41:06;11.40;99.90
17992;DHT22;9121;50.926;5.340;2023-05-25T05:43:38;11.60;99.90
17992;DHT22;9121;50.926;5.340;2023-05-25T05:46:06;11.70;99.90
17992;DHT22;9121;50.926;5.340;2023-05-25T05:48:34;11.70;99.90
17992;DHT22;9121;50.926;5.340;2023-05-25T05:51:03;11.70;99.90
17992;DHT22;9121;50.926;5.340;2023-05-25T05:53:30;11.80;99.90
17992;DHT22;9121;50.926;5.340;2023-05-25T05:55:57;12.00;99.90
17992;DHT22;9121;50.926;5.340;2023-05-25T05:58:24;12.10;99.90
17992;DHT22;9121;50.926;5.340;2023-05-25T06:00:52;12.20;99.90
17992;DHT22;9121;50.926;5.340;2023-05-25T06:03:20;12.20;99.90
17992;DHT22;9121;50.926;5.340;2023-05-25T06:05:47;12.30;99.90
17992;DHT22;9121;50.926;5.340;2023-05-25T06:08:16;12.20;99.90
17992;DHT22;9121;50.926;5.340;2023-05-25T06:10:43;12.40;99.90
17992;DHT22;9121;50.926;5.340;2023-05-25T06:13:11;12.40;99.90
17992;DHT22;9121;50.926;5.340;2023-05-25T06:15:38;12.60;99.90
17992;DHT22;9121;50.926;5.340;2023-05-25T06:18:06;12.70;99.90
17992;DHT22;9121;50.926;5.340;2023-05-25T06:20:33;12.80;99.90
17992;DHT22;9121;50.926;5.340;2023-05-25T06:23:01;12.70;99.90
17992;DHT22;9121;50.926;5.340;2023-05-25T06:25:29;12.70;99.90
17992;DHT22;9121;50.926;5.340;2023-05-25T06:27:56;12.90;99.90
17992;DHT22;9121;50.926;5.340;2023-05-25T06:30:23;13.00;99.90
17992;DHT22;9121;50.926;5.340;2023-05-25T06:32:50;13.10;99.90
17992;DHT22;9121;50.926;5.340;2023-05-25T06:35:17;13.00;99.90
17992;DHT22;9121;50.926;5.340;2023-05-25T06:37:45;12.90;99.90
17992;DHT22;9121;50.926;5.340;2023-05-25T06:40:13;13.00;99.90
17992;DHT22;9121;50.926;5.340;2023-05-25T06:42:42;13.10;99.90
17992;DHT22;9121;50.926;5.340;2023-05-25T06:45:09;13.30;99.90
17992;DHT22;9121;50.926;5.340;2023-05-25T06:47:36;13.50;99.90
17992;DHT22;9121;50.926;5.340;2023-05-25T06:50:04;13.70;99.90
17992;DHT22;9121;50.926;5.340;2023-05-25T06:52:31;13.70;99.90
17992;DHT22;9121;50.926;5.340;2023-05-25T06:54:58;13.80;99.90
17992;DHT22;9121;50.926;5.340;2023-05-25T06:57:25;13.70;99.90
17992;DHT22;9121;50.926;5.340;2023-05-25T06:59:53;13.70;99.90
17992;DHT22;9121;50.926;5.340;2023-05-25T07:02:21;13.90;99.90
17992;DHT22;9121;50.926;5.340;2023-05-25T07:04:47;13.90;99.90
17992;DHT22;9121;50.926;5.340;2023-05-25T07:07:14;13.90;99.90
17992;DHT22;9121;50.926;5.340;2023-05-25T07:09:41;13.90;99.90
17992;DHT22;9121;50.926;5.340;2023-05-25T07:12:08;13.90;99.90
17992;DHT22;9121;50.926;5.340;2023-05-25T07:14:36;13.90;99.90
17992;DHT22;9121;50.926;5.340;2023-05-25T07:17:04;13.90;99.90
17992;DHT22;9121;50.926;5.340;2023-05-25T07:19:31;14.00;99.90
17992;DHT22;9121;50.926;5.340;2023-05-25T07:21:59;14.20;99.90
17992;DHT22;9121;50.926;5.340;2023-05-25T07:24:25;14.40;99.90
17992;DHT22;9121;50.926;5.340;2023-05-25T07:26:52;14.40;99.90
17992;DHT22;9121;50.926;5.340;2023-05-25T07:29:19;14.40;99.90
17992;DHT22;9121;50.926;5.340;2023-05-25T07:31:47;14.40;99.90
17992;DHT22;9121;50.926;5.340;2023-05-25T07:34:15;14.40;99.90
17992;DHT22;9121;50.926;5.340;2023-05-25T07:36:42;14.50;99.90
17992;DHT22;9121;50.926;5.340;2023-05-25T07:39:09;14.80;99.90
17992;DHT22;9121;50.926;5.340;2023-05-25T07:41:36;14.90;99.90
17992;DHT22;9121;50.926;5.340;2023-05-25T07:44:03;15.00;99.90
17992;DHT22;9121;50.926;5.340;2023-05-25T07:46:30;14.90;99.90
17992;DHT22;9121;50.926;5.340;2023-05-25T07:48:57;14.90;99.90
17992;DHT22;9121;50.926;5.340;2023-05-25T07:51:27;14.90;99.90
17992;DHT22;9121;50.926;5.340;2023-05-25T07:53:55;15.10;99.90
17992;DHT22;9121;50.926;5.340;2023-05-25T07:56:23;15.20;99.90
17992;DHT22;9121;50.926;5.340;2023-05-25T07:58:51;15.30;99.90
17992;DHT22;9121;50.926;5.340;2023-05-25T08:01:18;15.50;99.90
17992;DHT22;9121;50.926;5.340;2023-05-25T08:03:44;15.50;99.90
17992;DHT22;9121;50.926;5.340;2023-05-25T08:06:11;15.50;99.90
17992;DHT22;9121;50.926;5.340;2023-05-25T08:08:40;15.50;99.90
17992;DHT22;9121;50.926;5.340;2023-05-25T08:11:09;15.40;99.90
17992;DHT22;9121;50.926;5.340;2023-05-25T08:13:36;15.40;99.90
17992;DHT22;9121;50.926;5.340;2023-05-25T08:16:03;15.50;99.90
17992;DHT22;9121;50.926;5.340;2023-05-25T08:18:31;15.50;99.90
17992;DHT22;9121;50.926;5.340;2023-05-25T08:20:58;15.30;99.90
17992;DHT22;9121;50.926;5.340;2023-05-25T08:23:25;15.30;99.90
17992;DHT22;9121;50.926;5.340;2023-05-25T08:25:53;15.50;99.90
17992;DHT22;9121;50.926;5.340;2023-05-25T08:28:21;15.70;99.90
17992;DHT22;9121;50.926;5.340;2023-05-25T08:30:48;15.90;99.90
17992;DHT22;9121;50.926;5.340;2023-05-25T08:33:15;16.10;99.90
17992;DHT22;9121;50.926;5.340;2023-05-25T08:35:42;16.20;99.90
17992;DHT22;9121;50.926;5.340;2023-05-25T08:38:09;16.10;99.90
17992;DHT22;9121;50.926;5.340;2023-05-25T08:40:40;15.90;99.90
17992;DHT22;9121;50.926;5.340;2023-05-25T08:43:09;15.90;99.90
17992;DHT22;9121;50.926;5.340;2023-05-25T08:45:36;16.00;99.90
17992;DHT22;9121;50.926;5.340;2023-05-25T08:48:06;16.10;99.90
17992;DHT22;9121;50.926;5.340;2023-05-25T08:50:37;16.10;99.90
17992;DHT22;9121;50.926;5.340;2023-05-25T08:53:07;16.10;99.90
17992;DHT22;9121;50.926;5.340;2023-05-25T08:55:38;16.30;99.90
17992;DHT22;9121;50.926;5.340;2023-05-25T08:58:15;16.40;99.90
17992;DHT22;9121;50.926;5.340;2023-05-25T09:00:47;16.80;99.90
17992;DHT22;9121;50.926;5.340;2023-05-25T09:03:16;17.00;99.90
17992;DHT22;9121;50.926;5.340;2023-05-25T09:05:43;17.00;99.90
17992;DHT22;9121;50.926;5.340;2023-05-25T09:08:10;16.90;99.90
17992;DHT22;9121;50.926;5.340;2023-05-25T09:10:37;16.70;99.90
17992;DHT22;9121;50.926;5.340;2023-05-25T09:13:04;16.80;99.90
17992;DHT22;9121;50.926;5.340;2023-05-25T09:15:34;17.00;99.90
17992;DHT22;9121;50.926;5.340;2023-05-25T09:18:01;16.90;99.90
17992;DHT22;9121;50.926;5.340;2023-05-25T09:20:28;16.70;99.90
17992;DHT22;9121;50.926;5.340;2023-05-25T09:22:57;16.60;99.90
17992;DHT22;9121;50.926;5.340;2023-05-25T09:25:25;16.80;99.90
17992;DHT22;9121;50.926;5.340;2023-05-25T09:27:53;17.20;99.90
17992;DHT22;9121;50.926;5.340;2023-05-25T09:30:22;17.30;99.90
17992;DHT22;9121;50.926;5.340;2023-05-25T09:32:51;17.40;99.90
17992;DHT22;9121;50.926;5.340;2023-05-25T09:35:18;17.30;99.90
17992;DHT22;9121;50.926;5.340;2023-05-25T09:37:47;16.70;99.90
17992;DHT22;9121;50.926;5.340;2023-05-25T09:40:14;16.50;99.90
17992;DHT22;9121;50.926;5.340;2023-05-25T09:42:41;16.50;99.90
17992;DHT22;9121;50.926;5.340;2023-05-25T09:45:09;16.70;99.90
17992;DHT22;9121;50.926;5.340;2023-05-25T09:47:36;16.90;99.90
17992;DHT22;9121;50.926;5.340;2023-05-25T09:50:05;16.80;99.90
17992;DHT22;9121;50.926;5.340;2023-05-25T09:52:32;16.70;99.90
17992;DHT22;9121;50.926;5.340;2023-05-25T09:55:01;16.70;99.90
17992;DHT22;9121;50.926;5.340;2023-05-25T09:57:28;17.00;99.90
17992;DHT22;9121;50.926;5.340;2023-05-25T09:59:55;17.20;99.90
17992;DHT22;9121;50.926;5.340;2023-05-25T10:02:22;17.50;99.90
17992;DHT22;9121;50.926;5.340;2023-05-25T10:04:49;17.60;99.90
17992;DHT22;9121;50.926;5.340;2023-05-25T10:07:17;17.60;99.90
17992;DHT22;9121;50.926;5.340;2023-05-25T10:09:45;17.50;99.90
17992;DHT22;9121;50.926;5.340;2023-05-25T10:12:16;17.50;99.90
17992;DHT22;9121;50.926;5.340;2023-05-25T10:14:45;17.40;99.90
17992;DHT22;9121;50.926;5.340;2023-05-25T10:17:13;17.50;99.90
17992;DHT22;9121;50.926;5.340;2023-05-25T10:19:48;17.70;99.90
17992;DHT22;9121;50.926;5.340;2023-05-25T10:22:19;17.70;99.90
17992;DHT22;9121;50.926;5.340;2023-05-25T10:24:52;17.60;99.90
17992;DHT22;9121;50.926;5.340;2023-05-25T10:27:23;17.60;99.90
17992;DHT22;9121;50.926;5.340;2023-05-25T10:29:51;17.50;99.90
17992;DHT22;9121;50.926;5.340;2023-05-25T10:32:19;17.50;99.90
17992;DHT22;9121;50.926;5.340;2023-05-25T10:34:47;17.70;99.90
17992;DHT22;9121;50.926;5.340;2023-05-25T10:37:18;18.10;99.90
17992;DHT22;9121;50.926;5.340;2023-05-25T10:39:45;18.40;99.90
17992;DHT22;9121;50.926;5.340;2023-05-25T10:42:14;18.50;99.90
17992;DHT22;9121;50.926;5.340;2023-05-25T10:44:42;18.40;99.90
17992;DHT22;9121;50.926;5.340;2023-05-25T10:47:11;18.40;99.90
17992;DHT22;9121;50.926;5.340;2023-05-25T10:49:51;18.20;99.90
17992;DHT22;9121;50.926;5.340;2023-05-25T10:52:20;18.10;99.90
17992;DHT22;9121;50.926;5.340;2023-05-25T10:54:47;18.20;99.90
17992;DHT22;9121;50.926;5.340;2023-05-25T10:57:19;18.40;99.90
17992;DHT22;9121;50.926;5.340;2023-05-25T10:59:50;18.40;99.90
17992;DHT22;9121;50.926;5.340;2023-05-25T11:02:20;18.20;99.90
17992;DHT22;9121;50.926;5.340;2023-05-25T11:04:49;18.20;99.90
17992;DHT22;9121;50.926;5.340;2023-05-25T11:07:16;18.40;99.90
17992;DHT22;9121;50.926;5.340;2023-05-25T11:09:56;18.60;99.90
17992;DHT22;9121;50.926;5.340;2023-05-25T11:12:23;18.70;99.90
17992;DHT22;9121;50.926;5.340;2023-05-25T11:15:09;18.50;99.90
17992;DHT22;9121;50.926;5.340;2023-05-25T11:17:44;18.40;99.90
17992;DHT22;9121;50.926;5.340;2023-05-25T11:20:20;18.60;99.90
17992;DHT22;9121;50.926;5.340;2023-05-25T11:22:50;18.80;99.90
17992;DHT22;9121;50.926;5.340;2023-05-25T11:25:38;18.70;99.90
17992;DHT22;9121;50.926;5.340;2023-05-25T11:28:06;18.40;99.90
17992;DHT22;9121;50.926;5.340;2023-05-25T11:30:37;18.40;99.90
17992;DHT22;9121;50.926;5.340;2023-05-25T11:33:04;18.70;99.90
17992;DHT22;9121;50.926;5.340;2023-05-25T11:35:32;19.00;99.90
17992;DHT22;9121;50.926;5.340;2023-05-25T11:38:04;19.00;99.90
17992;DHT22;9121;50.926;5.340;2023-05-25T11:40:32;19.30;99.90
17992;DHT22;9121;50.926;5.340;2023-05-25T11:43:01;19.50;99.90
17992;DHT22;9121;50.926;5.340;2023-05-25T11:45:29;19.70;99.90
17992;DHT22;9121;50.926;5.340;2023-05-25T11:47:56;19.60;99.90
17992;DHT22;9121;50.926;5.340;2023-05-25T11:50:24;19.40;99.90
17992;DHT22;9121;50.926;5.340;2023-05-25T11:52:52;19.30;99.90
17992;DHT22;9121;50.926;5.340;2023-05-25T11:55:20;19.70;99.90
17992;DHT22;9121;50.926;5.340;2023-05-25T11:57:54;19.80;99.90
17992;DHT22;9121;50.926;5.340;2023-05-25T12:00:26;19.60;99.90
17992;DHT22;9121;50.926;5.340;2023-05-25T12:02:53;19.80;99.90
17992;DHT22;9121;50.926;5.340;2023-05-25T12:05:22;19.90;99.90
17992;DHT22;9121;50.926;5.340;2023-05-25T12:07:49;20.20;99.90
17992;DHT22;9121;50.926;5.340;2023-05-25T12:10:16;20.20;99.90
17992;DHT22;9121;50.926;5.340;2023-05-25T12:12:44;20.50;99.90
17992;DHT22;9121;50.926;5.340;2023-05-25T12:15:13;20.70;99.90
17992;DHT22;9121;50.926;5.340;2023-05-25T12:17:43;20.70;99.90
17992;DHT22;9121;50.926;5.340;2023-05-25T12:20:11;20.60;99.90
17992;DHT22;9121;50.926;5.340;2023-05-25T12:22:40;20.70;99.90
17992;DHT22;9121;50.926;5.340;2023-05-25T12:25:09;20.70;99.90
17992;DHT22;9121;50.926;5.340;2023-05-25T12:27:36;20.30;99.90
17992;DHT22;9121;50.926;5.340;2023-05-25T12:30:06;20.40;99.90
17992;DHT22;9121;50.926;5.340;2023-05-25T12:32:33;21.10;99.90
17992;DHT22;9121;50.926;5.340;2023-05-25T12:35:03;22.20;99.90
17992;DHT22;9121;50.926;5.340;2023-05-25T12:37:30;22.80;99.90
17992;DHT22;9121;50.926;5.340;2023-05-25T12:39:57;23.20;99.90
17992;DHT22;9121;50.926;5.340;2023-05-25T12:42:24;23.00;99.90
17992;DHT22;9121;50.926;5.340;2023-05-25T12:44:54;22.90;99.90
17992;DHT22;9121;50.926;5.340;2023-05-25T12:47:23;23.10;99.90
17992;DHT22;9121;50.926;5.340;2023-05-25T12:50:08;22.60;99.90
17992;DHT22;9121;50.926;5.340;2023-05-25T12:52:38;22.00;99.90
17992;DHT22;9121;50.926;5.340;2023-05-25T12:55:18;21.20;99.90
17992;DHT22;9121;50.926;5.340;2023-05-25T12:57:46;20.60;99.90
17992;DHT22;9121;50.926;5.340;2023-05-25T13:00:18;20.90;99.90
17992;DHT22;9121;50.926;5.340;2023-05-25T13:02:45;20.70;99.90
17992;DHT22;9121;50.926;5.340;2023-05-25T13:05:23;20.30;99.90
17992;DHT22;9121;50.926;5.340;2023-05-25T13:07:53;20.50;99.90
17992;DHT22;9121;50.926;5.340;2023-05-25T13:10:20;20.90;99.90
17992;DHT22;9121;50.926;5.340;2023-05-25T13:12:48;21.10;99.90
17992;DHT22;9121;50.926;5.340;2023-05-25T13:15:18;21.00;99.90
17992;DHT22;9121;50.926;5.340;2023-05-25T13:17:46;20.30;99.90
17992;DHT22;9121;50.926;5.340;2023-05-25T13:20:13;20.10;99.90
17992;DHT22;9121;50.926;5.340;2023-05-25T13:22:41;20.70;99.90
17992;DHT22;9121;50.926;5.340;2023-05-25T13:25:11;20.90;99.90
17992;DHT22;9121;50.926;5.340;2023-05-25T13:27:42;20.60;99.90
17992;DHT22;9121;50.926;5.340;2023-05-25T13:30:10;20.30;99.90
17992;DHT22;9121;50.926;5.340;2023-05-25T13:32:37;20.50;99.90
17992;DHT22;9121;50.926;5.340;2023-05-25T13:35:05;20.90;99.90
17992;DHT22;9121;50.926;5.340;2023-05-25T13:37:32;21.20;99.90
17992;DHT22;9121;50.926;5.340;2023-05-25T13:40:00;21.10;99.90
17992;DHT22;9121;50.926;5.340;2023-05-25T13:42:29;21.10;99.90
17992;DHT22;9121;50.926;5.340;2023-05-25T13:44:56;21.50;99.90
17992;DHT22;9121;50.926;5.340;2023-05-25T13:47:23;22.50;99.90
17992;DHT22;9121;50.926;5.340;2023-05-25T13:49:50;23.30;99.90
17992;DHT22;9121;50.926;5.340;2023-05-25T13:52:17;23.20;99.90
17992;DHT22;9121;50.926;5.340;2023-05-25T13:54:44;22.90;99.90
17992;DHT22;9121;50.926;5.340;2023-05-25T13:57:11;22.80;99.90
17992;DHT22;9121;50.926;5.340;2023-05-25T13:59:39;22.50;99.90
17992;DHT22;9121;50.926;5.340;2023-05-25T14:02:06;22.10;99.90
17992;DHT22;9121;50.926;5.340;2023-05-25T14:04:33;22.70;99.90
17992;DHT22;9121;50.926;5.340;2023-05-25T14:07:00;23.40;99.90
17992;DHT22;9121;50.926;5.340;2023-05-25T14:09:27;23.80;99.90
17992;DHT22;9121;50.926;5.340;2023-05-25T14:11:54;22.80;99.90
17992;DHT22;9121;50.926;5.340;2023-05-25T14:14:21;21.80;99.90
17992;DHT22;9121;50.926;5.340;2023-05-25T14:16:49;21.80;99.90
17992;DHT22;9121;50.926;5.340;2023-05-25T14:19:16;22.20;99.90
17992;DHT22;9121;50.926;5.340;2023-05-25T14:21:43;21.40;99.90
17992;DHT22;9121;50.926;5.340;2023-05-25T14:24:10;21.70;99.90
17992;DHT22;9121;50.926;5.340;2023-05-25T14:26:37;22.70;99.90
17992;DHT22;9121;50.926;5.340;2023-05-25T14:29:06;22.90;99.90
17992;DHT22;9121;50.926;5.340;2023-05-25T14:31:33;23.30;99.90
17992;DHT22;9121;50.926;5.340;2023-05-25T14:34:01;23.90;99.90
17992;DHT22;9121;50.926;5.340;2023-05-25T14:36:28;24.20;99.90
17992;DHT22;9121;50.926;5.340;2023-05-25T14:38:56;24.20;99.90
17992;DHT22;9121;50.926;5.340;2023-05-25T14:41:23;23.80;99.90
17992;DHT22;9121;50.926;5.340;2023-05-25T14:43:50;24.00;99.90
17992;DHT22;9121;50.926;5.340;2023-05-25T14:46:17;24.10;99.90
17992;DHT22;9121;50.926;5.340;2023-05-25T14:48:44;25.10;99.90
17992;DHT22;9121;50.926;5.340;2023-05-25T14:51:12;25.10;99.90
17992;DHT22;9121;50.926;5.340;2023-05-25T14:53:39;24.20;99.90
17992;DHT22;9121;50.926;5.340;2023-05-25T14:56:06;22.70;99.90
17992;DHT22;9121;50.926;5.340;2023-05-25T14:58:33;22.00;99.90
17992;DHT22;9121;50.926;5.340;2023-05-25T15:01:00;22.50;99.90
17992;DHT22;9121;50.926;5.340;2023-05-25T15:03:27;22.90;99.90
17992;DHT22;9121;50.926;5.340;2023-05-25T15:05:54;23.60;99.90
17992;DHT22;9121;50.926;5.340;2023-05-25T15:08:23;23.80;99.90
17992;DHT22;9121;50.926;5.340;2023-05-25T15:10:50;24.20;99.90
17992;DHT22;9121;50.926;5.340;2023-05-25T15:13:17;25.00;99.90
17992;DHT22;9121;50.926;5.340;2023-05-25T15:15:47;25.70;98.20
17992;DHT22;9121;50.926;5.340;2023-05-25T15:18:14;25.00;98.70
17992;DHT22;9121;50.926;5.340;2023-05-25T15:20:41;23.40;99.90
17992;DHT22;9121;50.926;5.340;2023-05-25T15:23:08;22.60;99.90
17992;DHT22;9121;50.926;5.340;2023-05-25T15:25:36;22.90;99.90
17992;DHT22;9121;50.926;5.340;2023-05-25T15:28:03;23.50;99.60
17992;DHT22;9121;50.926;5.340;2023-05-25T15:30:30;23.90;99.90
17992;DHT22;9121;50.926;5.340;2023-05-25T15:32:58;25.00;98.60
17992;DHT22;9121;50.926;5.340;2023-05-25T15:35:25;25.20;98.10
17992;DHT22;9121;50.926;5.340;2023-05-25T15:37:55;24.80;98.10
17992;DHT22;9121;50.926;5.340;2023-05-25T15:40:22;24.90;98.50
17992;DHT22;9121;50.926;5.340;2023-05-25T15:42:51;25.30;97.70
17992;DHT22;9121;50.926;5.340;2023-05-25T15:45:18;25.90;96.60
17992;DHT22;9121;50.926;5.340;2023-05-25T15:47:45;25.50;96.30
17992;DHT22;9121;50.926;5.340;2023-05-25T15:50:12;24.90;98.00